createdAt,value
2023-08-21T00:02:16.810Z,89.35
2023-08-21T00:04:44.009Z,89.34
2023-08-21T00:07:12.654Z,89.38
2023-08-21T00:09:39.894Z,89.37
2023-08-21T00:12:07.566Z,89.15
2023-08-21T00:14:34.842Z,89.43
2023-08-21T00:17:04.384Z,89.29
2023-08-21T00:19:32.141Z,89.06
2023-08-21T00:21:59.278Z,88.75
2023-08-21T00:24:26.530Z,88.45
2023-08-21T00:26:53.566Z,88.52
2023-08-21T00:29:20.820Z,88.51
2023-08-21T00:31:48.116Z,88.44
2023-08-21T00:34:15.759Z,88.57
2023-08-21T00:36:42.967Z,88.60
2023-08-21T00:39:10.048Z,88.53
2023-08-21T00:41:37.243Z,88.43
2023-08-21T00:44:05.307Z,88.49
2023-08-21T00:46:33.581Z,88.59
2023-08-21T00:49:01.190Z,88.51
2023-08-21T00:51:28.572Z,88.52
2023-08-21T00:53:55.897Z,88.32
2023-08-21T00:56:23.109Z,88.60
2023-08-21T00:58:50.595Z,89.11
2023-08-21T01:01:20.386Z,89.11
2023-08-21T01:03:47.916Z,89.27
2023-08-21T01:06:14.976Z,89.20
2023-08-21T01:09:13.126Z,88.46
2023-08-21T01:12:06.074Z,88.53
2023-08-21T01:14:44.830Z,88.45
2023-08-21T01:17:17.109Z,88.24
2023-08-21T01:19:47.399Z,88.16
2023-08-21T01:22:14.779Z,88.01
2023-08-21T01:24:41.938Z,87.54
2023-08-21T01:27:10.463Z,87.49
2023-08-21T01:29:38.449Z,87.65
2023-08-21T01:32:11.253Z,87.36
2023-08-21T01:34:40.455Z,86.61
2023-08-21T01:37:09.475Z,86.75
2023-08-21T01:39:36.752Z,86.80
2023-08-21T01:42:05.977Z,86.67
2023-08-21T01:44:33.370Z,86.58
2023-08-21T01:47:03.096Z,86.50
2023-08-21T01:49:30.291Z,86.68
2023-08-21T01:51:57.497Z,86.72
2023-08-21T01:54:26.241Z,86.69
2023-08-21T01:56:53.313Z,86.50
2023-08-21T01:59:21.457Z,86.54
2023-08-21T02:01:48.694Z,86.44
2023-08-21T02:04:15.857Z,85.88
2023-08-21T02:06:43.125Z,85.40
2023-08-21T02:09:10.237Z,84.91
2023-08-21T02:11:37.436Z,84.64
2023-08-21T02:16:31.907Z,84.29
2023-08-21T02:18:59.254Z,83.97
2023-08-21T02:21:26.498Z,84.42
2023-08-21T02:23:53.708Z,84.41
2023-08-21T02:26:21.452Z,84.75
2023-08-21T02:28:48.585Z,85.03
2023-08-21T02:31:15.701Z,84.83
2023-08-21T02:33:42.886Z,84.65
2023-08-21T02:36:10.005Z,84.77
2023-08-21T02:38:37.304Z,84.47
2023-08-21T02:41:04.977Z,84.36
2023-08-21T02:43:32.088Z,84.22
2023-08-21T02:45:59.316Z,84.45
2023-08-21T02:48:26.588Z,84.31
2023-08-21T02:50:54.887Z,84.15
2023-08-21T02:53:22.055Z,84.06
2023-08-21T02:55:49.291Z,84.04
2023-08-21T02:58:16.520Z,84.10
2023-08-21T03:00:44.228Z,84.09
2023-08-21T03:03:12.570Z,83.75
2023-08-21T03:05:39.790Z,83.49
2023-08-21T03:08:07.731Z,83.49
2023-08-21T03:10:35.712Z,83.13
2023-08-21T03:13:02.893Z,82.90
2023-08-21T03:15:30.415Z,82.82
2023-08-21T03:17:57.566Z,82.92
2023-08-21T03:20:25.041Z,82.52
2023-08-21T03:22:52.171Z,82.37
2023-08-21T03:25:19.475Z,82.54
2023-08-21T03:27:50.603Z,82.79
2023-08-21T03:30:18.328Z,82.53
2023-08-21T03:32:45.827Z,82.61
2023-08-21T03:35:13.132Z,82.56
2023-08-21T03:37:43.261Z,82.61
2023-08-21T03:40:13.769Z,82.68
2023-08-21T03:42:41.870Z,82.45
2023-08-21T03:45:09.508Z,82.62
2023-08-21T03:47:36.785Z,82.51
2023-08-21T03:50:11.406Z,82.54
2023-08-21T03:52:38.714Z,82.95
2023-08-21T03:55:06.171Z,82.76
2023-08-21T03:57:33.286Z,82.67
2023-08-21T04:00:00.375Z,82.62
2023-08-21T04:02:27.881Z,82.98
2023-08-21T04:04:55.041Z,83.01
2023-08-21T04:07:22.235Z,83.36
2023-08-21T04:09:49.398Z,83.23
2023-08-21T04:12:16.529Z,83.07
2023-08-21T04:14:43.769Z,83.21
2023-08-21T04:17:10.841Z,83.25
2023-08-21T04:19:38.637Z,83.61
2023-08-21T04:22:05.847Z,83.41
2023-08-21T04:24:33.046Z,83.45
2023-08-21T04:27:00.128Z,83.07
2023-08-21T04:29:27.257Z,82.91
2023-08-21T04:31:55.133Z,82.52
2023-08-21T04:34:22.208Z,82.30
2023-08-21T04:36:50.550Z,82.00
2023-08-21T04:39:18.258Z,81.84
2023-08-21T04:41:46.648Z,81.92
2023-08-21T04:44:13.820Z,81.92
2023-08-21T04:46:40.927Z,81.70
2023-08-21T04:49:08.243Z,82.07
2023-08-21T04:51:35.817Z,82.01
2023-08-21T04:54:04.202Z,82.01
2023-08-21T04:56:32.079Z,82.18
2023-08-21T04:58:59.682Z,82.49
2023-08-21T05:01:29.085Z,82.32
2023-08-21T05:03:58.180Z,82.20
2023-08-21T05:06:25.602Z,82.16
2023-08-21T05:08:52.657Z,82.03
2023-08-21T05:11:20.400Z,81.34
2023-08-21T05:13:47.478Z,81.47
2023-08-21T05:16:16.473Z,81.26
2023-08-21T05:18:43.820Z,81.34
2023-08-21T05:21:10.948Z,81.29
2023-08-21T05:23:38.110Z,81.10
2023-08-21T05:26:08.251Z,81.38
2023-08-21T05:28:35.356Z,81.31
2023-08-21T05:31:02.528Z,81.14
2023-08-21T05:33:40.445Z,80.51
2023-08-21T05:36:07.625Z,80.27
2023-08-21T05:38:34.941Z,80.31
2023-08-21T05:41:02.373Z,80.04
2023-08-21T05:43:29.938Z,79.99
2023-08-21T05:45:58.343Z,80.05
2023-08-21T05:48:25.503Z,80.18
2023-08-21T05:50:53.496Z,80.04
2023-08-21T05:53:21.127Z,79.56
2023-08-21T05:55:48.422Z,79.34
2023-08-21T05:58:16.558Z,79.69
2023-08-21T06:00:45.733Z,79.07
2023-08-21T06:03:13.097Z,79.09
2023-08-21T06:06:12.640Z,79.18
2023-08-21T06:08:40.727Z,79.45
2023-08-21T06:11:07.915Z,78.15
2023-08-21T06:13:35.052Z,77.39
2023-08-21T06:16:02.875Z,76.82
2023-08-21T06:18:31.613Z,76.87
2023-08-21T06:20:58.902Z,76.09
2023-08-21T06:23:26.080Z,76.37
2023-08-21T06:25:53.228Z,74.76
2023-08-21T06:28:22.620Z,74.02
2023-08-21T06:30:57.603Z,72.80
2023-08-21T06:33:24.957Z,71.58
2023-08-21T06:35:52.214Z,70.86
2023-08-21T06:38:19.405Z,70.57
2023-08-21T06:40:47.675Z,70.76
2023-08-21T06:43:14.942Z,70.97
2023-08-21T06:45:47.368Z,69.74
2023-08-21T06:48:15.530Z,69.58
2023-08-21T06:50:42.852Z,69.09
2023-08-21T06:53:09.940Z,68.82
2023-08-21T06:55:37.527Z,68.54
2023-08-21T06:58:05.012Z,68.61
2023-08-21T07:00:32.282Z,68.54
2023-08-21T07:02:59.728Z,67.82
2023-08-21T07:05:26.998Z,67.47
2023-08-21T07:07:55.723Z,66.68
2023-08-21T07:10:23.109Z,65.70
2023-08-21T07:12:50.347Z,66.33
2023-08-21T07:15:17.612Z,65.76
2023-08-21T07:17:44.787Z,65.44
2023-08-21T07:20:12.465Z,64.80
2023-08-21T07:22:40.048Z,63.20
2023-08-21T07:25:07.819Z,62.94
2023-08-21T07:27:35.081Z,62.54
2023-08-21T07:30:02.263Z,61.31
2023-08-21T07:32:29.511Z,61.76
2023-08-21T07:34:56.779Z,61.66
2023-08-21T07:37:23.961Z,61.77
2023-08-21T07:39:51.119Z,60.19
2023-08-21T07:42:18.499Z,58.93
2023-08-21T07:44:47.300Z,58.54
2023-08-21T07:47:14.501Z,58.21
2023-08-21T07:49:41.730Z,58.30
2023-08-21T07:52:08.922Z,58.45
2023-08-21T07:54:36.138Z,58.11
2023-08-21T07:57:05.238Z,57.16
2023-08-21T07:59:32.384Z,56.38
2023-08-21T08:02:01.948Z,56.35
2023-08-21T08:04:29.617Z,56.66
2023-08-21T08:06:57.031Z,55.77
2023-08-21T08:09:24.240Z,55.33
2023-08-21T08:11:51.339Z,55.85
2023-08-21T08:14:18.458Z,56.41
2023-08-21T08:16:45.766Z,55.50
2023-08-21T08:19:12.860Z,55.75
2023-08-21T08:21:40.182Z,56.97
2023-08-21T08:24:07.540Z,55.58
2023-08-21T08:26:34.750Z,55.72
2023-08-21T08:29:01.977Z,54.39
2023-08-21T08:31:29.430Z,55.71
2023-08-21T08:33:56.631Z,55.59
2023-08-21T08:36:23.879Z,54.94
2023-08-21T08:38:51.214Z,53.66
2023-08-21T08:41:34.610Z,53.17
2023-08-21T08:44:03.968Z,52.81
2023-08-21T08:46:32.022Z,52.26
2023-08-21T08:49:01.445Z,50.94
2023-08-21T08:51:31.973Z,49.80
2023-08-21T08:54:00.393Z,50.37
2023-08-21T08:56:27.834Z,49.81
2023-08-21T08:58:55.183Z,49.39
2023-08-21T09:01:22.501Z,49.53
2023-08-21T09:03:51.597Z,49.85
2023-08-21T09:06:18.762Z,50.18
2023-08-21T09:08:56.426Z,49.57
2023-08-21T09:11:24.389Z,48.57
2023-08-21T09:13:52.570Z,48.53
2023-08-21T09:16:20.681Z,49.40
2023-08-21T09:18:49.397Z,49.15
2023-08-21T09:21:24.518Z,48.76
2023-08-21T09:23:58.569Z,49.25
2023-08-21T09:26:26.159Z,48.80
2023-08-21T09:28:54.354Z,48.38
2023-08-21T09:31:25.663Z,48.75
2023-08-21T09:34:01.984Z,47.94
2023-08-21T09:36:29.899Z,48.22
2023-08-21T09:38:57.023Z,48.55
2023-08-21T09:41:25.559Z,47.82
2023-08-21T09:43:53.062Z,47.77
2023-08-21T09:46:27.687Z,47.41
2023-08-21T09:48:55.414Z,47.15
2023-08-21T09:51:22.637Z,46.34
2023-08-21T09:53:51.252Z,45.21
2023-08-21T09:56:21.544Z,46.22
2023-08-21T09:58:52.568Z,46.12
2023-08-21T10:01:23.185Z,45.60
2023-08-21T10:03:50.604Z,46.38
2023-08-21T10:06:23.013Z,45.99
2023-08-21T10:08:54.792Z,45.90
2023-08-21T10:11:22.855Z,46.22
2023-08-21T10:13:54.208Z,46.98
2023-08-21T10:16:24.321Z,46.48
2023-08-21T10:18:51.465Z,47.15
2023-08-21T10:21:22.006Z,46.24
2023-08-21T10:23:52.804Z,46.42
2023-08-21T10:26:22.253Z,44.78
2023-08-21T10:29:04.331Z,46.51
2023-08-21T10:31:33.043Z,45.48
2023-08-21T10:34:02.387Z,45.96
2023-08-21T10:37:01.464Z,44.96
2023-08-21T10:39:33.651Z,45.35
2023-08-21T10:42:11.126Z,44.86
2023-08-21T10:45:07.056Z,43.48
2023-08-21T10:47:36.897Z,44.98
2023-08-21T10:50:08.640Z,45.14
2023-08-21T10:52:43.433Z,45.07
2023-08-21T10:55:11.285Z,44.98
2023-08-21T10:57:39.406Z,45.68
2023-08-21T11:00:12.816Z,46.03
2023-08-21T11:02:43.792Z,44.84
2023-08-21T11:05:12.209Z,45.00
2023-08-21T11:07:40.862Z,44.50
2023-08-21T11:10:12.886Z,43.00
2023-08-21T11:12:50.229Z,43.88
2023-08-21T11:15:20.108Z,43.51
2023-08-21T11:18:14.633Z,42.45
2023-08-21T11:20:44.344Z,43.07
2023-08-21T11:23:11.626Z,42.61
2023-08-21T11:25:42.209Z,43.13
2023-08-21T11:28:09.898Z,42.46
2023-08-21T11:30:37.665Z,42.54
2023-08-21T11:33:12.861Z,41.88
2023-08-21T11:35:40.715Z,42.99
2023-08-21T11:38:15.128Z,43.85
2023-08-21T11:40:42.251Z,43.38
2023-08-21T11:43:10.679Z,43.61
2023-08-21T11:45:53.102Z,44.77
2023-08-21T11:48:24.493Z,43.98
2023-08-21T11:50:51.841Z,43.88
2023-08-21T11:53:36.038Z,44.04
2023-08-21T11:56:03.867Z,44.42
2023-08-21T11:58:31.401Z,44.23
2023-08-21T12:01:05.685Z,44.10
2023-08-21T12:03:38.468Z,43.72
2023-08-21T12:06:10.383Z,43.59
2023-08-21T12:08:38.025Z,43.27
2023-08-21T12:11:05.118Z,43.72
2023-08-21T12:13:35.483Z,43.97
2023-08-21T12:16:03.407Z,43.95
2023-08-21T12:18:30.648Z,44.32
2023-08-21T12:20:58.791Z,44.40
2023-08-21T12:23:26.319Z,45.00
2023-08-21T12:25:53.443Z,44.77
2023-08-21T12:28:20.683Z,45.37
2023-08-21T12:30:48.503Z,45.71
2023-08-21T12:33:23.157Z,46.33
2023-08-21T12:35:52.197Z,45.80
2023-08-21T12:38:19.648Z,46.08
2023-08-21T12:40:46.752Z,45.72
2023-08-21T12:43:13.966Z,46.99
2023-08-21T12:45:41.740Z,47.40
2023-08-21T12:48:09.789Z,47.11
2023-08-21T12:50:37.186Z,47.21
2023-08-21T12:53:04.573Z,47.99
2023-08-21T12:55:32.272Z,48.58
2023-08-21T12:57:59.579Z,48.25
2023-08-21T13:00:26.824Z,47.88
2023-08-21T13:02:54.401Z,47.40
2023-08-21T13:05:21.744Z,48.19
2023-08-21T13:07:50.246Z,48.18
2023-08-21T13:10:17.421Z,49.45
2023-08-21T13:12:45.089Z,49.77
2023-08-21T13:15:12.335Z,49.67
2023-08-21T13:17:39.763Z,49.87
2023-08-21T13:20:07.666Z,49.54
2023-08-21T13:22:52.864Z,49.97
2023-08-21T13:25:23.946Z,51.00
2023-08-21T13:27:52.241Z,51.26
2023-08-21T13:30:19.708Z,51.93
2023-08-21T13:32:46.930Z,52.25
2023-08-21T13:35:14.250Z,52.21
2023-08-21T13:37:41.723Z,51.55
2023-08-21T13:40:13.869Z,52.21
2023-08-21T13:42:45.581Z,52.13
2023-08-21T13:45:14.412Z,52.16
2023-08-21T13:47:43.628Z,51.37
2023-08-21T13:50:11.973Z,52.09
2023-08-21T13:52:41.212Z,52.48
2023-08-21T13:55:10.178Z,52.91
2023-08-21T13:57:40.574Z,53.28
2023-08-21T14:00:12.976Z,53.10
2023-08-21T14:02:43.837Z,53.53
2023-08-21T14:05:12.389Z,53.44
2023-08-21T14:07:41.436Z,53.67
2023-08-21T14:10:10.055Z,54.21
2023-08-21T14:12:39.119Z,54.15
2023-08-21T14:15:09.427Z,54.01
2023-08-21T14:17:36.970Z,54.28
2023-08-21T14:20:05.614Z,53.62
2023-08-21T14:22:33.216Z,54.64
2023-08-21T14:25:00.467Z,54.03
2023-08-21T14:27:27.710Z,53.98
2023-08-21T14:29:54.867Z,54.11
2023-08-21T14:32:22.213Z,55.34
2023-08-21T14:34:49.383Z,54.50
2023-08-21T14:37:17.217Z,53.75
2023-08-21T14:39:44.749Z,53.40
2023-08-21T14:42:12.494Z,53.57
2023-08-21T14:44:39.698Z,53.92
2023-08-21T14:47:08.921Z,54.09
2023-08-21T14:49:36.283Z,54.26
2023-08-21T14:52:04.462Z,53.69
2023-08-21T14:54:31.743Z,53.73
2023-08-21T14:56:58.982Z,53.74
2023-08-21T14:59:26.495Z,54.36
2023-08-21T15:01:53.813Z,54.31
2023-08-21T15:04:20.981Z,54.28
2023-08-21T15:06:48.256Z,54.28
2023-08-21T15:09:15.501Z,54.76
2023-08-21T15:11:42.670Z,55.02
2023-08-21T15:14:13.304Z,55.44
2023-08-21T15:16:40.791Z,54.77
2023-08-21T15:19:08.216Z,54.36
2023-08-21T15:21:35.508Z,53.78
2023-08-21T15:24:05.314Z,53.83
2023-08-21T15:26:32.786Z,54.49
2023-08-21T15:29:01.680Z,53.67
2023-08-21T15:31:28.936Z,53.72
2023-08-21T15:33:56.283Z,54.42
2023-08-21T15:36:23.534Z,54.96
2023-08-21T15:38:50.916Z,54.09
2023-08-21T15:41:18.090Z,54.30
2023-08-21T15:43:45.272Z,54.89
2023-08-21T15:46:12.671Z,54.96
2023-08-21T15:48:40.154Z,54.39
2023-08-21T15:51:07.440Z,54.62
2023-08-21T15:53:34.817Z,54.20
2023-08-21T15:56:02.013Z,54.08
2023-08-21T15:58:29.576Z,54.61
2023-08-21T16:00:58.963Z,54.80
2023-08-21T16:03:26.285Z,55.02
2023-08-21T16:05:53.571Z,55.07
2023-08-21T16:08:21.141Z,55.27
2023-08-21T16:10:48.278Z,54.94
2023-08-21T16:13:15.705Z,54.96
2023-08-21T16:15:42.952Z,55.17
2023-08-21T16:18:11.419Z,54.73
2023-08-21T16:20:39.089Z,54.81
2023-08-21T16:23:07.775Z,53.84
2023-08-21T16:25:35.477Z,53.59
2023-08-21T16:28:02.830Z,53.36
2023-08-21T16:30:30.405Z,53.76
2023-08-21T16:32:57.977Z,54.45
2023-08-21T16:35:26.605Z,54.57
2023-08-21T16:37:53.970Z,55.05
2023-08-21T16:40:21.359Z,55.50
2023-08-21T16:42:48.792Z,55.94
2023-08-21T16:45:17.373Z,55.39
2023-08-21T16:47:46.713Z,55.16
2023-08-21T16:50:15.086Z,54.82
2023-08-21T16:52:42.568Z,54.57
2023-08-21T16:55:10.339Z,54.70
2023-08-21T16:57:37.818Z,54.69
2023-08-21T17:00:11.254Z,54.38
2023-08-21T17:02:40.763Z,54.94
2023-08-21T17:05:09.268Z,55.67
2023-08-21T17:07:39.485Z,55.56
2023-08-21T17:10:12.001Z,55.69
2023-08-21T17:12:39.600Z,55.86
2023-08-21T17:15:08.535Z,56.05
2023-08-21T17:17:35.752Z,56.01
2023-08-21T17:20:06.587Z,56.05
2023-08-21T17:22:33.832Z,56.43
2023-08-21T17:25:12.736Z,56.43
2023-08-21T17:27:41.987Z,56.25
2023-08-21T17:30:10.024Z,55.40
2023-08-21T17:32:37.819Z,55.11
2023-08-21T17:35:05.947Z,55.17
2023-08-21T17:37:33.183Z,55.16
2023-08-21T17:40:01.180Z,55.28
2023-08-21T17:42:28.399Z,54.88
2023-08-21T17:44:56.296Z,54.08
2023-08-21T17:47:23.723Z,54.16
2023-08-21T17:49:51.704Z,54.55
2023-08-21T17:52:18.892Z,54.67
2023-08-21T17:54:46.298Z,53.41
2023-08-21T17:57:14.403Z,53.05
2023-08-21T17:59:41.603Z,53.16
2023-08-21T18:02:11.353Z,53.09
2023-08-21T18:04:43.022Z,52.63
2023-08-21T18:07:10.278Z,52.90
2023-08-21T18:09:38.017Z,53.65
2023-08-21T18:12:05.834Z,53.90
2023-08-21T18:14:33.104Z,54.58
2023-08-21T18:17:04.780Z,54.98
2023-08-21T18:19:44.801Z,55.60
2023-08-21T18:22:14.244Z,56.19
2023-08-21T18:24:41.486Z,56.78
2023-08-21T18:27:08.679Z,57.30
2023-08-21T18:29:39.706Z,57.81
2023-08-21T18:32:11.073Z,58.06
2023-08-21T18:34:39.463Z,58.36
2023-08-21T18:37:09.102Z,58.68
2023-08-21T18:39:36.456Z,59.01
2023-08-21T18:42:03.892Z,59.64
2023-08-21T18:44:31.269Z,60.08
2023-08-21T18:46:59.768Z,60.25
2023-08-21T18:49:27.267Z,60.25
2023-08-21T18:51:55.176Z,60.57
2023-08-21T18:54:25.246Z,60.91
2023-08-21T18:56:53.723Z,61.10
2023-08-21T18:59:21.025Z,61.08
2023-08-21T19:01:48.292Z,61.26
2023-08-21T19:04:15.494Z,61.57
2023-08-21T19:06:51.937Z,62.00
2023-08-21T19:09:27.663Z,62.30
2023-08-21T19:11:54.826Z,62.49
2023-08-21T19:14:22.017Z,63.11
2023-08-21T19:16:53.657Z,63.47
2023-08-21T19:19:23.439Z,63.71
2023-08-21T19:21:52.203Z,64.01
2023-08-21T19:24:23.770Z,64.14
2023-08-21T19:26:53.873Z,64.76
2023-08-21T19:29:25.803Z,65.00
2023-08-21T19:31:56.048Z,65.63
2023-08-21T19:34:24.758Z,66.08
2023-08-21T19:36:56.162Z,66.25
2023-08-21T19:39:24.108Z,66.46
2023-08-21T19:44:37.521Z,66.90
2023-08-21T19:47:06.563Z,66.98
2023-08-21T19:52:25.517Z,67.80
2023-08-21T19:54:57.204Z,67.86
2023-08-21T19:57:31.639Z,68.17
2023-08-21T20:00:00.321Z,68.18
2023-08-21T20:02:30.724Z,68.26
2023-08-21T20:05:02.098Z,68.53
2023-08-21T20:07:30.920Z,68.38
2023-08-21T20:10:01.799Z,68.37
2023-08-21T20:12:34.409Z,68.32
2023-08-21T20:15:06.122Z,68.30
2023-08-21T20:17:34.357Z,68.25
2023-08-21T20:20:03.076Z,68.95
2023-08-21T20:22:33.233Z,68.98
2023-08-21T20:25:01.836Z,69.21
2023-08-21T20:27:29.339Z,69.23
2023-08-21T20:29:56.518Z,69.31
2023-08-21T20:32:24.058Z,69.39
2023-08-21T20:34:51.332Z,69.86
2023-08-21T20:37:18.537Z,70.44
2023-08-21T20:39:45.856Z,70.79
2023-08-21T20:42:13.120Z,70.81
2023-08-21T20:44:40.892Z,71.03
2023-08-21T20:47:08.173Z,71.03
2023-08-21T20:49:36.484Z,70.80
2023-08-21T20:52:04.768Z,70.58
2023-08-21T20:54:32.977Z,70.50
2023-08-21T20:57:00.124Z,70.38
2023-08-21T20:59:27.308Z,70.45
2023-08-21T21:01:54.540Z,70.40
2023-08-21T21:04:21.663Z,70.16
2023-08-21T21:06:49.942Z,70.40
2023-08-21T21:09:16.975Z,70.19
2023-08-21T21:11:44.309Z,70.48
2023-08-21T21:14:11.503Z,70.96
2023-08-21T21:16:41.334Z,70.78
2023-08-21T21:19:08.650Z,71.04
2023-08-21T21:21:36.096Z,70.77
2023-08-21T21:24:03.385Z,70.83
2023-08-21T21:26:30.639Z,71.39
2023-08-21T21:28:57.801Z,71.34
2023-08-21T21:31:25.049Z,71.48
2023-08-21T21:33:53.943Z,71.47
2023-08-21T21:36:21.223Z,71.50
2023-08-21T21:38:48.391Z,71.82
2023-08-21T21:41:15.602Z,71.86
2023-08-21T21:43:43.541Z,72.42
2023-08-21T21:46:15.825Z,72.59
2023-08-21T21:48:43.185Z,73.02
2023-08-21T21:51:10.876Z,73.44
2023-08-21T21:53:38.142Z,73.68
2023-08-21T21:56:05.653Z,74.36
2023-08-21T21:58:32.888Z,74.54
2023-08-21T22:01:00.351Z,74.51
2023-08-21T22:03:28.394Z,74.86
2023-08-21T22:05:56.534Z,74.83
2023-08-21T22:08:24.735Z,75.39
2023-08-21T22:10:53.356Z,75.56
2023-08-21T22:13:21.491Z,76.17
2023-08-21T22:15:48.634Z,76.28
2023-08-21T22:18:16.724Z,76.52
2023-08-21T22:20:45.387Z,76.84
2023-08-21T22:23:12.537Z,76.75
2023-08-21T22:25:40.141Z,76.51
2023-08-21T22:28:07.347Z,76.52
2023-08-21T22:30:34.432Z,76.75
2023-08-21T22:33:01.654Z,76.81
2023-08-21T22:35:28.891Z,76.99
2023-08-21T22:37:56.007Z,76.66
2023-08-21T22:40:26.706Z,76.34
2023-08-21T22:42:54.008Z,76.34
2023-08-21T22:45:21.668Z,76.61
2023-08-21T22:47:49.055Z,77.01
2023-08-21T22:50:16.449Z,78.13
2023-08-21T22:52:43.688Z,78.72
2023-08-21T22:55:11.371Z,79.26
2023-08-21T22:57:41.131Z,78.91
2023-08-21T23:00:11.246Z,78.78
2023-08-21T23:02:38.767Z,79.18
2023-08-21T23:05:07.019Z,78.98
2023-08-21T23:07:35.254Z,78.85
2023-08-21T23:10:03.164Z,79.06
2023-08-21T23:12:30.561Z,79.48
2023-08-21T23:14:58.231Z,79.79
2023-08-21T23:17:25.760Z,79.89
2023-08-21T23:19:53.421Z,79.78
2023-08-21T23:22:21.007Z,80.26
2023-08-21T23:24:48.472Z,80.37
2023-08-21T23:27:15.830Z,80.69
2023-08-21T23:29:43.052Z,80.46
2023-08-21T23:32:10.597Z,80.54
2023-08-21T23:34:37.918Z,81.02
2023-08-21T23:37:05.631Z,81.23
2023-08-21T23:39:32.978Z,81.52
2023-08-21T23:42:00.458Z,81.38
2023-08-21T23:44:27.828Z,81.14
2023-08-21T23:46:55.105Z,80.42
2023-08-21T23:49:22.488Z,80.21
2023-08-21T23:51:49.793Z,79.67
2023-08-21T23:54:17.174Z,79.18
2023-08-21T23:56:44.617Z,78.77
2023-08-21T23:59:11.871Z,78.76
